Aviation Digital Data Service (ADDS)

Output produced by METARs form (0135 UTC 31 July 2016)
found at http://aviationweather.gov/adds/metars/
 
KFAY 310131Z 3102/3124 22010KT P6SM VCTS SCT040CB SCT080 
     FM310300 21005KT P6SM SCT250 
     FM311200 22010KT P6SM SCT050